sensor_id;sensor_type;location;lat;lon;timestamp;P1;durP1;ratioP1;P2;durP2;ratioP2
73850;SDS011;62190;51.548;5.688;2023-02-11T00:00:35;32.55;;;15.03;;
73850;SDS011;62190;51.548;5.688;2023-02-11T00:03:06;29.27;;;15.68;;
73850;SDS011;62190;51.548;5.688;2023-02-11T00:05:36;32.40;;;16.62;;
73850;SDS011;62190;51.548;5.688;2023-02-11T00:08:03;28.57;;;16.10;;
73850;SDS011;62190;51.548;5.688;2023-02-11T00:10:37;34.95;;;14.65;;
73850;SDS011;62190;51.548;5.688;2023-02-11T00:13:01;31.95;;;14.95;;
73850;SDS011;62190;51.548;5.688;2023-02-11T00:15:29;24.82;;;14.47;;
73850;SDS011;62190;51.548;5.688;2023-02-11T00:17:57;29.52;;;14.13;;
73850;SDS011;62190;51.548;5.688;2023-02-11T00:20:24;31.70;;;15.25;;
73850;SDS011;62190;51.548;5.688;2023-02-11T00:22:51;30.95;;;14.63;;
73850;SDS011;62190;51.548;5.688;2023-02-11T00:25:18;30.37;;;14.58;;
73850;SDS011;62190;51.548;5.688;2023-02-11T00:27:46;25.55;;;14.80;;
73850;SDS011;62190;51.548;5.688;2023-02-11T00:30:13;28.45;;;13.45;;
73850;SDS011;62190;51.548;5.688;2023-02-11T00:32:41;28.92;;;13.83;;
73850;SDS011;62190;51.548;5.688;2023-02-11T00:35:08;27.90;;;14.45;;
73850;SDS011;62190;51.548;5.688;2023-02-11T00:37:35;26.85;;;13.80;;
73850;SDS011;62190;51.548;5.688;2023-02-11T00:40:03;26.70;;;13.75;;
73850;SDS011;62190;51.548;5.688;2023-02-11T00:42:32;30.02;;;14.30;;
73850;SDS011;62190;51.548;5.688;2023-02-11T00:45:06;23.32;;;13.35;;
73850;SDS011;62190;51.548;5.688;2023-02-11T00:47:34;30.50;;;13.68;;
73850;SDS011;62190;51.548;5.688;2023-02-11T00:50:03;26.17;;;11.53;;
73850;SDS011;62190;51.548;5.688;2023-02-11T00:52:31;29.20;;;13.32;;
73850;SDS011;62190;51.548;5.688;2023-02-11T00:54:58;25.92;;;13.62;;
73850;SDS011;62190;51.548;5.688;2023-02-11T00:57:26;28.30;;;13.50;;
73850;SDS011;62190;51.548;5.688;2023-02-11T00:59:56;21.75;;;12.33;;
73850;SDS011;62190;51.548;5.688;2023-02-11T01:02:23;25.48;;;12.37;;
73850;SDS011;62190;51.548;5.688;2023-02-11T01:04:50;24.75;;;12.53;;
73850;SDS011;62190;51.548;5.688;2023-02-11T01:07:18;20.17;;;12.15;;
73850;SDS011;62190;51.548;5.688;2023-02-11T01:09:45;28.17;;;13.15;;
73850;SDS011;62190;51.548;5.688;2023-02-11T01:12:12;26.48;;;12.50;;
73850;SDS011;62190;51.548;5.688;2023-02-11T01:14:39;23.67;;;12.15;;
73850;SDS011;62190;51.548;5.688;2023-02-11T01:17:11;25.80;;;11.18;;
73850;SDS011;62190;51.548;5.688;2023-02-11T01:19:40;24.43;;;11.43;;
73850;SDS011;62190;51.548;5.688;2023-02-11T01:22:08;21.20;;;11.80;;
73850;SDS011;62190;51.548;5.688;2023-02-11T01:24:35;26.30;;;11.93;;
73850;SDS011;62190;51.548;5.688;2023-02-11T01:27:02;24.98;;;11.33;;
73850;SDS011;62190;51.548;5.688;2023-02-11T01:29:32;26.75;;;11.22;;
73850;SDS011;62190;51.548;5.688;2023-02-11T01:31:59;25.25;;;12.03;;
73850;SDS011;62190;51.548;5.688;2023-02-11T01:34:26;18.80;;;10.08;;
73850;SDS011;62190;51.548;5.688;2023-02-11T01:36:59;22.73;;;11.73;;
73850;SDS011;62190;51.548;5.688;2023-02-11T01:39:26;22.90;;;11.25;;
73850;SDS011;62190;51.548;5.688;2023-02-11T01:41:53;22.00;;;11.78;;
73850;SDS011;62190;51.548;5.688;2023-02-11T01:44:25;19.10;;;10.53;;
73850;SDS011;62190;51.548;5.688;2023-02-11T01:47:01;21.50;;;10.70;;
73850;SDS011;62190;51.548;5.688;2023-02-11T01:49:31;22.40;;;11.18;;
73850;SDS011;62190;51.548;5.688;2023-02-11T01:52:01;21.70;;;11.68;;
73850;SDS011;62190;51.548;5.688;2023-02-11T01:54:35;23.38;;;10.78;;
73850;SDS011;62190;51.548;5.688;2023-02-11T01:57:23;20.97;;;11.80;;
73850;SDS011;62190;51.548;5.688;2023-02-11T01:59:59;16.65;;;10.55;;
73850;SDS011;62190;51.548;5.688;2023-02-11T02:02:59;20.45;;;10.08;;
73850;SDS011;62190;51.548;5.688;2023-02-11T02:08:46;20.60;;;9.98;;
73850;SDS011;62190;51.548;5.688;2023-02-11T02:11:14;21.42;;;10.90;;
73850;SDS011;62190;51.548;5.688;2023-02-11T02:13:42;19.23;;;10.35;;
73850;SDS011;62190;51.548;5.688;2023-02-11T02:16:13;24.98;;;9.80;;
73850;SDS011;62190;51.548;5.688;2023-02-11T02:24:38;23.95;;;11.03;;
73850;SDS011;62190;51.548;5.688;2023-02-11T02:30:07;15.90;;;9.60;;
73850;SDS011;62190;51.548;5.688;2023-02-11T02:41:08;20.77;;;10.13;;
73850;SDS011;62190;51.548;5.688;2023-02-11T02:43:39;18.35;;;8.25;;
73850;SDS011;62190;51.548;5.688;2023-02-11T02:46:12;25.62;;;10.40;;
73850;SDS011;62190;51.548;5.688;2023-02-11T02:48:44;19.85;;;9.55;;
73850;SDS011;62190;51.548;5.688;2023-02-11T02:51:29;18.32;;;9.55;;
73850;SDS011;62190;51.548;5.688;2023-02-11T02:57:01;20.77;;;10.15;;
73850;SDS011;62190;51.548;5.688;2023-02-11T02:59:33;17.73;;;9.88;;
73850;SDS011;62190;51.548;5.688;2023-02-11T03:04:50;22.67;;;10.28;;
73850;SDS011;62190;51.548;5.688;2023-02-11T03:10:20;23.12;;;9.95;;
73850;SDS011;62190;51.548;5.688;2023-02-11T03:12:49;21.50;;;9.80;;
73850;SDS011;62190;51.548;5.688;2023-02-11T03:15:18;18.95;;;9.30;;
73850;SDS011;62190;51.548;5.688;2023-02-11T03:17:47;18.50;;;9.30;;
73850;SDS011;62190;51.548;5.688;2023-02-11T03:20:17;20.75;;;9.78;;
73850;SDS011;62190;51.548;5.688;2023-02-11T03:25:21;20.48;;;9.23;;
73850;SDS011;62190;51.548;5.688;2023-02-11T03:30:31;26.27;;;10.08;;
73850;SDS011;62190;51.548;5.688;2023-02-11T03:32:56;17.57;;;8.83;;
73850;SDS011;62190;51.548;5.688;2023-02-11T03:35:38;22.00;;;9.70;;
73850;SDS011;62190;51.548;5.688;2023-02-11T03:38:10;19.80;;;9.88;;
73850;SDS011;62190;51.548;5.688;2023-02-11T03:40:47;26.10;;;9.63;;
73850;SDS011;62190;51.548;5.688;2023-02-11T03:43:16;29.37;;;9.93;;
73850;SDS011;62190;51.548;5.688;2023-02-11T03:45:48;23.00;;;10.32;;
73850;SDS011;62190;51.548;5.688;2023-02-11T03:48:18;18.48;;;9.43;;
73850;SDS011;62190;51.548;5.688;2023-02-11T03:50:47;23.27;;;8.95;;
73850;SDS011;62190;51.548;5.688;2023-02-11T03:53:17;20.48;;;9.75;;
73850;SDS011;62190;51.548;5.688;2023-02-11T03:55:48;22.22;;;10.15;;
73850;SDS011;62190;51.548;5.688;2023-02-11T03:58:16;19.30;;;9.38;;
73850;SDS011;62190;51.548;5.688;2023-02-11T04:00:43;21.68;;;9.65;;
73850;SDS011;62190;51.548;5.688;2023-02-11T04:03:12;16.80;;;9.33;;
73850;SDS011;62190;51.548;5.688;2023-02-11T04:05:40;20.43;;;9.23;;
73850;SDS011;62190;51.548;5.688;2023-02-11T04:08:09;21.33;;;9.80;;
73850;SDS011;62190;51.548;5.688;2023-02-11T04:10:38;22.60;;;9.68;;
73850;SDS011;62190;51.548;5.688;2023-02-11T04:13:05;20.08;;;9.68;;
73850;SDS011;62190;51.548;5.688;2023-02-11T04:15:35;17.73;;;9.50;;
73850;SDS011;62190;51.548;5.688;2023-02-11T04:18:03;18.12;;;10.23;;
73850;SDS011;62190;51.548;5.688;2023-02-11T04:20:32;18.75;;;9.83;;
73850;SDS011;62190;51.548;5.688;2023-02-11T04:22:59;17.82;;;9.38;;
73850;SDS011;62190;51.548;5.688;2023-02-11T04:25:27;19.73;;;9.38;;
73850;SDS011;62190;51.548;5.688;2023-02-11T04:27:55;19.62;;;9.55;;
73850;SDS011;62190;51.548;5.688;2023-02-11T04:30:22;23.40;;;10.70;;
73850;SDS011;62190;51.548;5.688;2023-02-11T04:32:49;19.17;;;10.55;;
73850;SDS011;62190;51.548;5.688;2023-02-11T04:35:18;19.27;;;9.75;;
73850;SDS011;62190;51.548;5.688;2023-02-11T04:37:46;24.02;;;10.55;;
73850;SDS011;62190;51.548;5.688;2023-02-11T04:40:13;25.17;;;11.10;;
73850;SDS011;62190;51.548;5.688;2023-02-11T04:42:41;21.52;;;11.00;;
73850;SDS011;62190;51.548;5.688;2023-02-11T04:45:10;20.92;;;9.95;;
73850;SDS011;62190;51.548;5.688;2023-02-11T04:47:38;18.48;;;10.60;;
73850;SDS011;62190;51.548;5.688;2023-02-11T04:50:06;23.98;;;10.58;;
73850;SDS011;62190;51.548;5.688;2023-02-11T04:52:33;21.57;;;10.78;;
73850;SDS011;62190;51.548;5.688;2023-02-11T04:55:01;21.60;;;9.95;;
73850;SDS011;62190;51.548;5.688;2023-02-11T04:57:29;27.07;;;11.60;;
73850;SDS011;62190;51.548;5.688;2023-02-11T04:59:56;25.12;;;11.38;;
73850;SDS011;62190;51.548;5.688;2023-02-11T05:02:24;21.45;;;11.33;;
73850;SDS011;62190;51.548;5.688;2023-02-11T05:04:53;22.02;;;10.58;;
73850;SDS011;62190;51.548;5.688;2023-02-11T05:07:20;22.02;;;10.70;;
73850;SDS011;62190;51.548;5.688;2023-02-11T05:09:48;23.38;;;10.95;;
73850;SDS011;62190;51.548;5.688;2023-02-11T05:12:17;25.25;;;11.25;;
73850;SDS011;62190;51.548;5.688;2023-02-11T05:14:44;22.17;;;10.53;;
73850;SDS011;62190;51.548;5.688;2023-02-11T05:19:41;24.43;;;11.60;;
73850;SDS011;62190;51.548;5.688;2023-02-11T05:22:11;26.95;;;11.65;;
73850;SDS011;62190;51.548;5.688;2023-02-11T05:24:38;31.02;;;12.23;;
73850;SDS011;62190;51.548;5.688;2023-02-11T05:27:05;23.57;;;11.28;;
73850;SDS011;62190;51.548;5.688;2023-02-11T05:29:34;24.37;;;11.95;;
73850;SDS011;62190;51.548;5.688;2023-02-11T05:32:03;25.48;;;12.07;;
73850;SDS011;62190;51.548;5.688;2023-02-11T05:34:31;21.95;;;11.97;;
73850;SDS011;62190;51.548;5.688;2023-02-11T05:36:59;23.77;;;11.73;;
73850;SDS011;62190;51.548;5.688;2023-02-11T05:39:27;24.67;;;11.45;;
73850;SDS011;62190;51.548;5.688;2023-02-11T05:41:55;21.80;;;12.33;;
73850;SDS011;62190;51.548;5.688;2023-02-11T05:44:24;26.90;;;12.63;;
73850;SDS011;62190;51.548;5.688;2023-02-11T05:46:51;27.58;;;11.85;;
73850;SDS011;62190;51.548;5.688;2023-02-11T05:49:18;25.57;;;13.10;;
73850;SDS011;62190;51.548;5.688;2023-02-11T05:51:45;29.75;;;13.62;;
73850;SDS011;62190;51.548;5.688;2023-02-11T05:54:13;23.22;;;12.50;;
73850;SDS011;62190;51.548;5.688;2023-02-11T05:56:41;26.85;;;13.60;;
73850;SDS011;62190;51.548;5.688;2023-02-11T05:59:08;26.23;;;12.93;;
73850;SDS011;62190;51.548;5.688;2023-02-11T06:01:40;27.17;;;13.25;;
73850;SDS011;62190;51.548;5.688;2023-02-11T06:04:07;23.30;;;12.80;;
73850;SDS011;62190;51.548;5.688;2023-02-11T06:06:34;25.10;;;12.85;;
73850;SDS011;62190;51.548;5.688;2023-02-11T06:09:04;25.40;;;13.62;;
73850;SDS011;62190;51.548;5.688;2023-02-11T06:11:31;26.17;;;14.33;;
73850;SDS011;62190;51.548;5.688;2023-02-11T06:13:59;25.88;;;13.78;;
73850;SDS011;62190;51.548;5.688;2023-02-11T06:16:29;28.30;;;13.60;;
73850;SDS011;62190;51.548;5.688;2023-02-11T06:18:56;25.62;;;13.90;;
73850;SDS011;62190;51.548;5.688;2023-02-11T06:21:24;24.50;;;13.95;;
73850;SDS011;62190;51.548;5.688;2023-02-11T06:23:53;33.70;;;15.65;;
73850;SDS011;62190;51.548;5.688;2023-02-11T06:26:21;33.00;;;15.63;;
73850;SDS011;62190;51.548;5.688;2023-02-11T06:28:49;30.72;;;15.05;;
73850;SDS011;62190;51.548;5.688;2023-02-11T06:31:17;28.50;;;14.90;;
73850;SDS011;62190;51.548;5.688;2023-02-11T06:33:44;30.05;;;15.00;;
73850;SDS011;62190;51.548;5.688;2023-02-11T06:36:18;30.85;;;15.35;;
73850;SDS011;62190;51.548;5.688;2023-02-11T06:38:41;38.60;;;16.12;;
73850;SDS011;62190;51.548;5.688;2023-02-11T06:41:10;32.45;;;16.05;;
73850;SDS011;62190;51.548;5.688;2023-02-11T06:43:39;33.60;;;17.23;;
73850;SDS011;62190;51.548;5.688;2023-02-11T06:46:06;33.73;;;15.72;;
73850;SDS011;62190;51.548;5.688;2023-02-11T06:48:34;34.53;;;16.95;;
73850;SDS011;62190;51.548;5.688;2023-02-11T06:51:06;31.42;;;16.75;;
73850;SDS011;62190;51.548;5.688;2023-02-11T06:53:36;37.95;;;17.48;;
73850;SDS011;62190;51.548;5.688;2023-02-11T06:56:06;37.85;;;17.40;;
73850;SDS011;62190;51.548;5.688;2023-02-11T06:58:35;47.75;;;19.75;;
73850;SDS011;62190;51.548;5.688;2023-02-11T07:01:04;38.02;;;18.00;;
73850;SDS011;62190;51.548;5.688;2023-02-11T07:03:32;35.98;;;19.27;;
73850;SDS011;62190;51.548;5.688;2023-02-11T07:06:01;39.70;;;18.45;;
73850;SDS011;62190;51.548;5.688;2023-02-11T07:08:31;38.53;;;19.27;;
73850;SDS011;62190;51.548;5.688;2023-02-11T07:10:59;42.98;;;18.87;;
73850;SDS011;62190;51.548;5.688;2023-02-11T07:13:26;41.75;;;19.12;;
73850;SDS011;62190;51.548;5.688;2023-02-11T07:15:53;48.50;;;20.15;;
73850;SDS011;62190;51.548;5.688;2023-02-11T07:18:21;45.63;;;20.48;;
73850;SDS011;62190;51.548;5.688;2023-02-11T07:20:48;41.95;;;21.55;;
73850;SDS011;62190;51.548;5.688;2023-02-11T07:23:15;43.75;;;21.05;;
73850;SDS011;62190;51.548;5.688;2023-02-11T07:25:43;44.15;;;20.20;;
73850;SDS011;62190;51.548;5.688;2023-02-11T07:28:10;50.90;;;23.30;;
73850;SDS011;62190;51.548;5.688;2023-02-11T07:30:37;52.30;;;21.45;;
73850;SDS011;62190;51.548;5.688;2023-02-11T07:33:05;44.50;;;21.73;;
73850;SDS011;62190;51.548;5.688;2023-02-11T07:35:32;52.62;;;23.45;;
73850;SDS011;62190;51.548;5.688;2023-02-11T07:37:59;47.60;;;21.07;;
73850;SDS011;62190;51.548;5.688;2023-02-11T07:40:26;49.98;;;24.43;;
73850;SDS011;62190;51.548;5.688;2023-02-11T07:42:56;43.92;;;23.55;;
73850;SDS011;62190;51.548;5.688;2023-02-11T07:45:23;52.65;;;24.82;;
73850;SDS011;62190;51.548;5.688;2023-02-11T07:47:51;46.55;;;22.30;;
73850;SDS011;62190;51.548;5.688;2023-02-11T07:50:18;53.35;;;23.73;;
73850;SDS011;62190;51.548;5.688;2023-02-11T07:52:45;53.75;;;24.15;;
73850;SDS011;62190;51.548;5.688;2023-02-11T07:55:12;53.60;;;23.47;;
73850;SDS011;62190;51.548;5.688;2023-02-11T07:57:40;51.05;;;23.35;;
73850;SDS011;62190;51.548;5.688;2023-02-11T08:00:08;43.85;;;23.57;;
73850;SDS011;62190;51.548;5.688;2023-02-11T08:02:36;54.35;;;24.45;;
73850;SDS011;62190;51.548;5.688;2023-02-11T08:05:03;57.67;;;24.15;;
73850;SDS011;62190;51.548;5.688;2023-02-11T08:07:31;53.98;;;25.00;;
73850;SDS011;62190;51.548;5.688;2023-02-11T08:10:00;55.25;;;26.93;;
73850;SDS011;62190;51.548;5.688;2023-02-11T08:12:28;45.83;;;23.92;;
73850;SDS011;62190;51.548;5.688;2023-02-11T08:14:57;54.38;;;24.75;;
73850;SDS011;62190;51.548;5.688;2023-02-11T08:17:24;50.73;;;23.77;;
73850;SDS011;62190;51.548;5.688;2023-02-11T08:19:51;55.80;;;25.15;;
73850;SDS011;62190;51.548;5.688;2023-02-11T08:22:19;54.23;;;24.82;;
73850;SDS011;62190;51.548;5.688;2023-02-11T08:24:46;52.20;;;24.60;;
73850;SDS011;62190;51.548;5.688;2023-02-11T08:27:13;61.30;;;25.88;;
73850;SDS011;62190;51.548;5.688;2023-02-11T08:29:41;55.08;;;26.52;;
73850;SDS011;62190;51.548;5.688;2023-02-11T08:32:08;54.80;;;27.10;;
73850;SDS011;62190;51.548;5.688;2023-02-11T08:34:35;56.37;;;25.77;;
73850;SDS011;62190;51.548;5.688;2023-02-11T08:37:03;56.60;;;25.62;;
73850;SDS011;62190;51.548;5.688;2023-02-11T08:39:30;57.75;;;25.62;;
73850;SDS011;62190;51.548;5.688;2023-02-11T08:41:57;56.75;;;26.50;;
73850;SDS011;62190;51.548;5.688;2023-02-11T08:44:25;57.15;;;26.33;;
73850;SDS011;62190;51.548;5.688;2023-02-11T08:46:52;50.95;;;25.95;;
73850;SDS011;62190;51.548;5.688;2023-02-11T08:49:20;52.70;;;26.07;;
73850;SDS011;62190;51.548;5.688;2023-02-11T08:51:47;63.90;;;28.00;;
73850;SDS011;62190;51.548;5.688;2023-02-11T08:54:15;58.42;;;27.67;;
73850;SDS011;62190;51.548;5.688;2023-02-11T08:56:43;59.27;;;27.32;;
73850;SDS011;62190;51.548;5.688;2023-02-11T08:59:12;55.35;;;25.57;;
73850;SDS011;62190;51.548;5.688;2023-02-11T09:01:41;59.27;;;28.07;;
73850;SDS011;62190;51.548;5.688;2023-02-11T09:04:09;62.33;;;28.98;;
73850;SDS011;62190;51.548;5.688;2023-02-11T09:06:36;53.55;;;26.05;;
73850;SDS011;62190;51.548;5.688;2023-02-11T09:09:08;63.70;;;27.75;;
73850;SDS011;62190;51.548;5.688;2023-02-11T09:11:39;60.00;;;26.65;;
73850;SDS011;62190;51.548;5.688;2023-02-11T09:14:07;65.92;;;28.52;;
73850;SDS011;62190;51.548;5.688;2023-02-11T09:16:36;56.95;;;28.00;;
73850;SDS011;62190;51.548;5.688;2023-02-11T09:19:04;60.63;;;30.48;;
73850;SDS011;62190;51.548;5.688;2023-02-11T09:21:31;61.68;;;28.45;;
73850;SDS011;62190;51.548;5.688;2023-02-11T09:23:59;59.45;;;29.30;;
73850;SDS011;62190;51.548;5.688;2023-02-11T09:26:27;59.38;;;28.32;;
73850;SDS011;62190;51.548;5.688;2023-02-11T09:28:57;69.20;;;30.48;;
73850;SDS011;62190;51.548;5.688;2023-02-11T09:31:26;59.40;;;28.80;;
73850;SDS011;62190;51.548;5.688;2023-02-11T09:33:55;61.45;;;30.65;;
73850;SDS011;62190;51.548;5.688;2023-02-11T09:36:25;58.00;;;30.65;;
73850;SDS011;62190;51.548;5.688;2023-02-11T09:38:58;62.55;;;29.65;;
73850;SDS011;62190;51.548;5.688;2023-02-11T09:44:03;62.05;;;30.17;;
73850;SDS011;62190;51.548;5.688;2023-02-11T09:46:39;60.52;;;29.23;;
73850;SDS011;62190;51.548;5.688;2023-02-11T09:49:02;69.00;;;30.40;;
73850;SDS011;62190;51.548;5.688;2023-02-11T09:51:44;63.33;;;30.35;;
73850;SDS011;62190;51.548;5.688;2023-02-11T09:54:18;62.73;;;30.08;;
73850;SDS011;62190;51.548;5.688;2023-02-11T09:56:46;61.85;;;30.62;;
73850;SDS011;62190;51.548;5.688;2023-02-11T09:59:14;69.15;;;30.43;;
73850;SDS011;62190;51.548;5.688;2023-02-11T10:01:49;63.95;;;30.10;;
73850;SDS011;62190;51.548;5.688;2023-02-11T10:04:33;62.67;;;29.45;;
73850;SDS011;62190;51.548;5.688;2023-02-11T10:07:34;58.68;;;29.98;;
73850;SDS011;62190;51.548;5.688;2023-02-11T10:12:48;61.42;;;30.08;;
73850;SDS011;62190;51.548;5.688;2023-02-11T10:15:17;64.20;;;30.65;;
73850;SDS011;62190;51.548;5.688;2023-02-11T10:20:28;68.12;;;31.00;;
73850;SDS011;62190;51.548;5.688;2023-02-11T10:23:04;66.35;;;31.73;;
73850;SDS011;62190;51.548;5.688;2023-02-11T10:25:43;66.72;;;30.95;;
73850;SDS011;62190;51.548;5.688;2023-02-11T10:28:15;68.57;;;33.35;;
73850;SDS011;62190;51.548;5.688;2023-02-11T10:30:52;68.02;;;30.70;;
73850;SDS011;62190;51.548;5.688;2023-02-11T10:33:19;64.55;;;32.28;;
73850;SDS011;62190;51.548;5.688;2023-02-11T10:35:49;62.23;;;30.25;;
73850;SDS011;62190;51.548;5.688;2023-02-11T10:38:16;64.17;;;32.05;;
73850;SDS011;62190;51.548;5.688;2023-02-11T10:40:44;66.67;;;30.50;;
73850;SDS011;62190;51.548;5.688;2023-02-11T10:43:14;64.50;;;31.40;;
73850;SDS011;62190;51.548;5.688;2023-02-11T10:45:42;65.05;;;30.90;;
73850;SDS011;62190;51.548;5.688;2023-02-11T10:53:37;64.77;;;30.40;;
73850;SDS011;62190;51.548;5.688;2023-02-11T10:56:05;57.45;;;30.65;;
73850;SDS011;62190;51.548;5.688;2023-02-11T10:58:53;64.25;;;30.20;;
73850;SDS011;62190;51.548;5.688;2023-02-11T11:01:44;62.78;;;29.75;;
73850;SDS011;62190;51.548;5.688;2023-02-11T11:07:15;67.35;;;30.15;;
73850;SDS011;62190;51.548;5.688;2023-02-11T11:12:47;68.62;;;32.17;;
73850;SDS011;62190;51.548;5.688;2023-02-11T11:15:11;62.10;;;30.25;;
73850;SDS011;62190;51.548;5.688;2023-02-11T11:17:38;70.83;;;31.55;;
73850;SDS011;62190;51.548;5.688;2023-02-11T11:20:18;65.67;;;30.25;;
73850;SDS011;62190;51.548;5.688;2023-02-11T11:25:57;65.97;;;29.80;;
73850;SDS011;62190;51.548;5.688;2023-02-11T11:28:27;63.08;;;31.12;;
73850;SDS011;62190;51.548;5.688;2023-02-11T11:30:57;67.45;;;32.17;;
73850;SDS011;62190;51.548;5.688;2023-02-11T11:33:32;60.08;;;30.40;;
73850;SDS011;62190;51.548;5.688;2023-02-11T11:35:59;65.50;;;29.80;;
73850;SDS011;62190;51.548;5.688;2023-02-11T11:38:27;60.95;;;30.60;;
73850;SDS011;62190;51.548;5.688;2023-02-11T11:49:44;58.98;;;30.35;;
73850;SDS011;62190;51.548;5.688;2023-02-11T11:52:40;55.70;;;29.70;;
73850;SDS011;62190;51.548;5.688;2023-02-11T11:55:21;53.08;;;28.85;;
73850;SDS011;62190;51.548;5.688;2023-02-11T11:57:59;58.92;;;29.67;;
73850;SDS011;62190;51.548;5.688;2023-02-11T12:00:32;56.02;;;29.27;;
73850;SDS011;62190;51.548;5.688;2023-02-11T12:03:08;60.52;;;28.27;;
73850;SDS011;62190;51.548;5.688;2023-02-11T12:08:39;64.40;;;29.57;;
73850;SDS011;62190;51.548;5.688;2023-02-11T12:11:23;54.08;;;27.25;;
73850;SDS011;62190;51.548;5.688;2023-02-11T12:19:22;55.88;;;26.75;;
73850;SDS011;62190;51.548;5.688;2023-02-11T12:22:08;48.73;;;26.48;;
73850;SDS011;62190;51.548;5.688;2023-02-11T12:24:44;53.75;;;27.70;;
73850;SDS011;62190;51.548;5.688;2023-02-11T12:32:59;51.40;;;26.37;;
73850;SDS011;62190;51.548;5.688;2023-02-11T12:38:29;46.65;;;23.45;;
73850;SDS011;62190;51.548;5.688;2023-02-11T12:47:17;45.52;;;25.17;;
73850;SDS011;62190;51.548;5.688;2023-02-11T12:49:57;47.73;;;26.52;;
73850;SDS011;62190;51.548;5.688;2023-02-11T12:52:53;46.95;;;25.43;;
73850;SDS011;62190;51.548;5.688;2023-02-11T12:55:21;46.35;;;24.47;;
73850;SDS011;62190;51.548;5.688;2023-02-11T12:57:49;46.10;;;25.23;;
73850;SDS011;62190;51.548;5.688;2023-02-11T13:00:39;47.05;;;24.30;;
73850;SDS011;62190;51.548;5.688;2023-02-11T13:05:51;40.63;;;23.38;;
73850;SDS011;62190;51.548;5.688;2023-02-11T13:08:30;43.02;;;23.57;;
73850;SDS011;62190;51.548;5.688;2023-02-11T13:11:10;41.23;;;23.60;;
73850;SDS011;62190;51.548;5.688;2023-02-11T13:22:14;51.20;;;25.68;;
73850;SDS011;62190;51.548;5.688;2023-02-11T13:30:29;49.93;;;27.80;;
73850;SDS011;62190;51.548;5.688;2023-02-11T13:36:13;54.10;;;29.92;;
73850;SDS011;62190;51.548;5.688;2023-02-11T13:38:18;49.63;;;25.75;;
73850;SDS011;62190;51.548;5.688;2023-02-11T13:46:28;43.58;;;24.87;;
73850;SDS011;62190;51.548;5.688;2023-02-11T13:48:57;35.75;;;22.37;;
73850;SDS011;62190;51.548;5.688;2023-02-11T13:51:38;40.33;;;22.55;;
73850;SDS011;62190;51.548;5.688;2023-02-11T13:54:06;40.17;;;23.70;;
73850;SDS011;62190;51.548;5.688;2023-02-11T13:56:38;40.52;;;22.55;;
73850;SDS011;62190;51.548;5.688;2023-02-11T14:05:08;38.60;;;22.67;;
73850;SDS011;62190;51.548;5.688;2023-02-11T14:10:57;37.40;;;23.05;;
73850;SDS011;62190;51.548;5.688;2023-02-11T14:13:30;40.33;;;24.25;;
73850;SDS011;62190;51.548;5.688;2023-02-11T14:16:13;38.30;;;23.90;;
73850;SDS011;62190;51.548;5.688;2023-02-11T14:21:18;41.08;;;23.60;;
73850;SDS011;62190;51.548;5.688;2023-02-11T14:23:54;45.58;;;25.50;;
73850;SDS011;62190;51.548;5.688;2023-02-11T14:26:33;37.13;;;21.90;;
73850;SDS011;62190;51.548;5.688;2023-02-11T14:29:15;37.50;;;23.27;;
73850;SDS011;62190;51.548;5.688;2023-02-11T14:32:29;41.35;;;23.35;;
73850;SDS011;62190;51.548;5.688;2023-02-11T14:34:39;46.40;;;23.07;;
73850;SDS011;62190;51.548;5.688;2023-02-11T14:37:13;42.23;;;23.80;;
73850;SDS011;62190;51.548;5.688;2023-02-11T14:42:29;48.20;;;23.73;;
73850;SDS011;62190;51.548;5.688;2023-02-11T14:45:01;38.88;;;23.32;;
73850;SDS011;62190;51.548;5.688;2023-02-11T14:47:28;39.65;;;24.10;;
73850;SDS011;62190;51.548;5.688;2023-02-11T14:50:04;39.42;;;22.80;;
73850;SDS011;62190;51.548;5.688;2023-02-11T14:52:33;41.15;;;22.93;;
73850;SDS011;62190;51.548;5.688;2023-02-11T14:58:04;35.98;;;22.50;;
73850;SDS011;62190;51.548;5.688;2023-02-11T15:00:34;35.38;;;22.25;;
73850;SDS011;62190;51.548;5.688;2023-02-11T15:03:02;34.70;;;22.05;;
73850;SDS011;62190;51.548;5.688;2023-02-11T15:05:29;42.00;;;23.98;;
73850;SDS011;62190;51.548;5.688;2023-02-11T15:07:58;38.40;;;21.68;;
73850;SDS011;62190;51.548;5.688;2023-02-11T15:10:33;38.75;;;22.20;;
73850;SDS011;62190;51.548;5.688;2023-02-11T15:13:01;40.60;;;23.27;;
73850;SDS011;62190;51.548;5.688;2023-02-11T15:15:29;40.00;;;22.50;;
73850;SDS011;62190;51.548;5.688;2023-02-11T15:17:59;45.08;;;24.15;;
73850;SDS011;62190;51.548;5.688;2023-02-11T15:20:30;40.33;;;21.82;;
73850;SDS011;62190;51.548;5.688;2023-02-11T15:22:58;38.40;;;21.17;;
73850;SDS011;62190;51.548;5.688;2023-02-11T15:25:28;41.90;;;23.20;;
73850;SDS011;62190;51.548;5.688;2023-02-11T15:27:56;37.00;;;21.12;;
73850;SDS011;62190;51.548;5.688;2023-02-11T15:30:25;39.08;;;22.15;;
73850;SDS011;62190;51.548;5.688;2023-02-11T15:35:32;37.35;;;20.70;;
73850;SDS011;62190;51.548;5.688;2023-02-11T15:38:01;37.05;;;22.32;;
73850;SDS011;62190;51.548;5.688;2023-02-11T15:40:29;33.63;;;21.07;;
73850;SDS011;62190;51.548;5.688;2023-02-11T15:42:59;37.23;;;21.93;;
73850;SDS011;62190;51.548;5.688;2023-02-11T15:45:32;36.10;;;21.90;;
73850;SDS011;62190;51.548;5.688;2023-02-11T15:48:27;40.40;;;20.68;;
73850;SDS011;62190;51.548;5.688;2023-02-11T15:50:56;37.40;;;20.90;;
73850;SDS011;62190;51.548;5.688;2023-02-11T15:53:26;35.50;;;20.32;;
73850;SDS011;62190;51.548;5.688;2023-02-11T15:56:01;36.98;;;21.75;;
73850;SDS011;62190;51.548;5.688;2023-02-11T15:58:27;38.08;;;21.57;;
73850;SDS011;62190;51.548;5.688;2023-02-11T16:00:54;38.80;;;21.60;;
73850;SDS011;62190;51.548;5.688;2023-02-11T16:03:24;38.13;;;21.70;;
73850;SDS011;62190;51.548;5.688;2023-02-11T16:05:55;44.05;;;21.82;;
73850;SDS011;62190;51.548;5.688;2023-02-11T16:08:24;38.78;;;21.33;;
73850;SDS011;62190;51.548;5.688;2023-02-11T16:10:58;36.77;;;21.97;;
73850;SDS011;62190;51.548;5.688;2023-02-11T16:13:30;39.35;;;21.60;;
73850;SDS011;62190;51.548;5.688;2023-02-11T16:15:59;40.50;;;22.25;;
73850;SDS011;62190;51.548;5.688;2023-02-11T16:18:33;39.13;;;22.25;;
73850;SDS011;62190;51.548;5.688;2023-02-11T16:21:02;41.08;;;23.52;;
73850;SDS011;62190;51.548;5.688;2023-02-11T16:23:33;39.65;;;21.77;;
73850;SDS011;62190;51.548;5.688;2023-02-11T16:26:11;38.88;;;22.22;;
73850;SDS011;62190;51.548;5.688;2023-02-11T16:28:46;40.00;;;23.02;;
73850;SDS011;62190;51.548;5.688;2023-02-11T16:31:14;37.50;;;22.30;;
73850;SDS011;62190;51.548;5.688;2023-02-11T16:33:42;43.38;;;22.42;;
73850;SDS011;62190;51.548;5.688;2023-02-11T16:36:12;41.53;;;22.50;;
73850;SDS011;62190;51.548;5.688;2023-02-11T16:38:44;37.93;;;21.73;;
73850;SDS011;62190;51.548;5.688;2023-02-11T16:41:11;38.73;;;22.73;;
73850;SDS011;62190;51.548;5.688;2023-02-11T16:43:39;41.90;;;22.75;;
73850;SDS011;62190;51.548;5.688;2023-02-11T16:46:06;40.90;;;23.22;;
73850;SDS011;62190;51.548;5.688;2023-02-11T16:48:33;44.65;;;23.35;;
73850;SDS011;62190;51.548;5.688;2023-02-11T16:51:06;40.50;;;22.48;;
73850;SDS011;62190;51.548;5.688;2023-02-11T16:53:36;43.85;;;23.60;;
73850;SDS011;62190;51.548;5.688;2023-02-11T16:56:03;43.83;;;25.27;;
73850;SDS011;62190;51.548;5.688;2023-02-11T16:58:31;42.27;;;23.45;;